createdAt,value
2019-05-22T13:00:33.053Z,9.63
2019-05-22T13:03:05.324Z,5.90
2019-05-22T13:05:39.748Z,6.35
2019-05-22T13:08:12.995Z,11.03
2019-05-22T13:10:47.012Z,10.45
2019-05-22T13:13:18.307Z,11.60
2019-05-22T13:15:50.077Z,9.75
2019-05-22T13:18:28.157Z,7.58
2019-05-22T13:21:08.127Z,6.50
2019-05-22T13:23:47.996Z,7.47
2019-05-22T13:26:27.578Z,8.38
2019-05-22T13:29:08.922Z,8.38
2019-05-22T13:31:40.633Z,9.88
2019-05-22T13:34:14.233Z,7.08
2019-05-22T13:36:47.160Z,8.98
2019-05-22T13:39:22.328Z,4.08
2019-05-22T13:41:54.241Z,7.62
2019-05-22T13:44:26.263Z,7.20
2019-05-22T13:46:58.063Z,6.15
2019-05-22T13:49:33.189Z,8.15
2019-05-22T13:52:04.464Z,6.78
2019-05-22T13:54:35.978Z,3.80
2019-05-22T13:57:12.940Z,3.83
2019-05-22T13:59:47.396Z,4.20
2019-05-22T14:02:18.470Z,4.75
2019-05-22T14:04:49.918Z,6.50
2019-05-22T14:07:21.081Z,7.95
2019-05-22T14:09:53.841Z,12.13
2019-05-22T14:12:25.490Z,7.90
2019-05-22T14:14:56.621Z,5.80
2019-05-22T14:17:27.745Z,2.70
2019-05-22T14:20:00.302Z,5.30
2019-05-22T14:22:31.429Z,4.12
2019-05-22T14:25:02.570Z,2.80
2019-05-22T14:27:33.573Z,3.22
2019-05-22T14:30:08.669Z,2.83
2019-05-22T14:32:40.719Z,2.47
2019-05-22T14:35:12.436Z,1.80
2019-05-22T14:37:43.497Z,1.90
2019-05-22T14:40:16.146Z,3.00
2019-05-22T14:42:47.360Z,3.52
2019-05-22T14:45:18.722Z,3.12
2019-05-22T14:47:49.731Z,2.90
2019-05-22T14:50:22.569Z,3.20
2019-05-22T14:52:53.494Z,5.37
2019-05-22T14:55:24.973Z,8.30
2019-05-22T14:57:56.638Z,16.23
2019-05-22T15:00:30.108Z,10.23
2019-05-22T15:03:01.725Z,10.70
2019-05-22T15:05:32.988Z,7.35
2019-05-22T15:08:04.990Z,6.20
2019-05-22T15:10:37.848Z,4.80
2019-05-22T15:13:09.968Z,5.28
2019-05-22T15:15:41.531Z,4.75
2019-05-22T15:18:12.656Z,3.77
2019-05-22T15:21:03.000Z,8.08
2019-05-22T15:23:34.338Z,28.40
2019-05-22T15:26:05.728Z,7.37
2019-05-22T15:28:36.876Z,8.23
2019-05-22T15:31:08.291Z,5.62
2019-05-22T15:33:39.720Z,6.72
2019-05-22T15:36:14.081Z,4.33
2019-05-22T15:38:46.515Z,2.52
2019-05-22T15:41:17.946Z,3.02
2019-05-22T15:43:52.991Z,4.15
2019-05-22T15:46:24.939Z,2.62
2019-05-22T15:48:57.962Z,3.20
2019-05-22T15:51:32.536Z,6.08
2019-05-22T15:54:06.632Z,3.62
2019-05-22T15:56:39.762Z,6.30
2019-05-22T15:59:13.160Z,4.25
2019-05-22T16:01:46.023Z,4.90
2019-05-22T16:04:18.694Z,4.62
2019-05-22T16:06:49.839Z,4.62
2019-05-22T16:09:23.973Z,5.70
2019-05-22T16:11:56.032Z,6.00
2019-05-22T16:14:29.771Z,8.05
2019-05-22T16:17:02.310Z,6.25
2019-05-22T16:19:35.233Z,6.25
2019-05-22T16:22:09.308Z,5.50
2019-05-22T16:24:41.440Z,5.60
2019-05-22T16:27:14.726Z,7.28
2019-05-22T16:29:47.222Z,7.47
2019-05-22T16:32:19.443Z,7.83
2019-05-22T16:34:50.454Z,4.58
2019-05-22T16:37:22.309Z,8.35
2019-05-22T16:39:54.750Z,7.37
2019-05-22T16:42:27.267Z,5.67
2019-05-22T16:44:58.101Z,8.20
2019-05-22T16:47:33.399Z,7.97
2019-05-22T16:50:06.272Z,6.83
2019-05-22T16:52:40.560Z,5.65
2019-05-22T16:55:13.407Z,5.67
2019-05-22T16:57:44.577Z,7.22
2019-05-22T17:00:17.305Z,28.77
2019-05-22T17:02:49.990Z,12.53
2019-05-22T17:05:22.926Z,12.50
2019-05-22T17:07:54.313Z,7.25
2019-05-22T17:10:25.655Z,8.68
2019-05-22T17:12:59.074Z,8.93
2019-05-22T17:15:30.217Z,7.15
2019-05-22T17:18:01.498Z,10.18
2019-05-22T17:20:32.611Z,11.78
2019-05-22T17:23:04.106Z,7.58
2019-05-22T17:25:35.646Z,9.90
2019-05-22T17:28:08.528Z,12.53
2019-05-22T17:30:40.413Z,6.40
2019-05-22T17:33:12.398Z,9.63
2019-05-22T17:35:44.925Z,10.48
2019-05-22T17:38:17.503Z,7.92
2019-05-22T17:40:48.718Z,8.95
2019-05-22T17:43:21.513Z,8.23
2019-05-22T17:45:53.451Z,7.80
2019-05-22T17:48:24.822Z,8.03
2019-05-22T17:50:55.853Z,8.33
2019-05-22T17:53:27.552Z,10.95
2019-05-22T17:55:58.774Z,7.30
2019-05-22T17:58:30.437Z,6.28
2019-05-22T18:01:02.433Z,6.62
2019-05-22T18:03:34.076Z,7.17
2019-05-22T18:06:06.328Z,9.03
2019-05-22T18:08:37.852Z,9.30
2019-05-22T18:11:09.303Z,6.30
2019-05-22T18:13:58.268Z,11.10
2019-05-22T18:16:30.902Z,7.45
2019-05-22T18:19:03.363Z,7.20
2019-05-22T18:21:34.887Z,8.38
2019-05-22T18:24:07.352Z,6.45
2019-05-22T18:26:38.496Z,17.35
2019-05-22T18:29:09.708Z,21.80
2019-05-22T18:31:40.850Z,7.80
2019-05-22T18:34:11.918Z,11.97
2019-05-22T18:36:42.947Z,8.00
2019-05-22T18:39:15.687Z,6.80
2019-05-22T18:41:46.597Z,8.83
2019-05-22T18:44:17.766Z,12.40
2019-05-22T18:46:48.891Z,9.98
2019-05-22T18:49:20.286Z,15.48
2019-05-22T18:51:51.224Z,14.35
2019-05-22T18:54:22.811Z,10.35
2019-05-22T18:56:53.742Z,8.53
2019-05-22T18:59:26.118Z,6.97
2019-05-22T19:01:57.205Z,5.97
2019-05-22T19:04:28.259Z,7.97
2019-05-22T19:06:59.304Z,7.20
2019-05-22T19:09:31.560Z,6.97
2019-05-22T19:12:02.877Z,4.90
2019-05-22T19:14:34.127Z,8.08
2019-05-22T19:17:05.288Z,6.53
2019-05-22T19:19:36.366Z,5.75
2019-05-22T19:22:07.873Z,8.15
2019-05-22T19:24:39.054Z,6.78
2019-05-22T19:27:10.439Z,7.95
2019-05-22T19:29:42.871Z,8.18
2019-05-22T19:32:14.326Z,6.75
2019-05-22T19:34:45.783Z,6.10
2019-05-22T19:37:17.221Z,3.67
2019-05-22T19:39:50.027Z,3.87
2019-05-22T19:42:22.509Z,8.80
2019-05-22T19:44:54.111Z,27.87
2019-05-22T19:47:25.618Z,57.88
2019-05-22T19:49:57.236Z,31.62
2019-05-22T19:52:40.968Z,22.10
2019-05-22T19:55:00.903Z,10.18
2019-05-22T19:57:32.838Z,7.92
2019-05-22T20:00:05.571Z,8.13
2019-05-22T20:02:37.940Z,14.40
2019-05-22T20:05:09.943Z,40.63
2019-05-22T20:07:41.400Z,36.95
2019-05-22T20:10:14.552Z,17.67
2019-05-22T20:12:46.203Z,22.17
2019-05-22T20:15:19.262Z,26.65
2019-05-22T20:17:51.397Z,21.10
2019-05-22T20:20:24.820Z,14.10
2019-05-22T20:22:57.050Z,9.23
2019-05-22T20:25:28.742Z,9.23
2019-05-22T20:28:02.589Z,10.38
2019-05-22T20:30:34.870Z,10.23
2019-05-22T20:33:06.901Z,8.58
2019-05-22T20:35:38.506Z,9.13
2019-05-22T20:38:09.814Z,7.17
2019-05-22T20:40:42.116Z,6.95
2019-05-22T20:43:13.869Z,6.58
2019-05-22T20:45:46.509Z,7.33
2019-05-22T20:48:27.135Z,8.78
2019-05-22T20:51:02.289Z,6.72
2019-05-22T20:53:52.157Z,9.85
2019-05-22T20:56:10.711Z,11.53
2019-05-22T20:58:43.543Z,10.93
2019-05-22T21:01:15.540Z,11.85
2019-05-22T21:03:46.770Z,10.40
2019-05-22T21:06:20.112Z,8.63
2019-05-22T21:08:51.170Z,9.35
2019-05-22T21:11:25.574Z,13.05
2019-05-22T21:13:56.791Z,9.15
2019-05-22T21:16:27.918Z,9.73
2019-05-22T21:18:59.575Z,7.95
2019-05-22T21:21:30.956Z,28.67
2019-05-22T21:24:11.238Z,43.15
2019-05-22T21:26:35.711Z,23.60
2019-05-22T21:29:08.538Z,47.43
2019-05-22T21:31:40.165Z,42.23
2019-05-22T21:34:11.600Z,22.42
2019-05-22T21:36:43.117Z,14.78
2019-05-22T21:42:06.395Z,8.90
2019-05-22T21:44:38.766Z,9.78
2019-05-22T21:47:10.929Z,8.85
2019-05-22T21:49:44.668Z,6.92
2019-05-22T21:52:16.642Z,7.05
2019-05-22T21:54:47.812Z,7.83
2019-05-22T21:57:19.402Z,12.15
2019-05-22T21:59:51.650Z,7.67
2019-05-22T22:02:27.145Z,10.48
2019-05-22T22:04:58.190Z,8.00
2019-05-22T22:07:31.089Z,7.35
2019-05-22T22:10:04.206Z,9.78
2019-05-22T22:12:36.872Z,8.68
2019-05-22T22:18:33.983Z,8.50
2019-05-22T22:21:06.176Z,8.40
2019-05-22T22:23:37.803Z,8.93
2019-05-22T22:26:24.667Z,8.93
2019-05-22T22:28:42.305Z,10.32
2019-05-22T22:31:15.410Z,10.38
2019-05-22T22:33:49.064Z,9.40
2019-05-22T22:36:20.312Z,14.15
2019-05-22T22:38:52.310Z,10.95
2019-05-22T22:41:23.747Z,7.70
2019-05-22T22:43:56.507Z,11.70
2019-05-22T22:46:48.152Z,9.03
2019-05-22T22:49:21.700Z,9.08
2019-05-22T22:51:53.576Z,9.88
2019-05-22T22:54:25.162Z,12.28
2019-05-22T22:56:56.624Z,9.63
2019-05-22T22:59:28.895Z,10.25
2019-05-22T23:02:02.174Z,11.95
2019-05-22T23:04:33.468Z,8.95
2019-05-22T23:07:06.147Z,9.48
2019-05-22T23:09:41.013Z,9.48
2019-05-22T23:12:14.277Z,17.20
2019-05-22T23:14:48.562Z,10.95
2019-05-22T23:17:20.911Z,11.00
2019-05-22T23:19:52.212Z,11.48
2019-05-22T23:22:22.891Z,9.85
2019-05-22T23:24:56.666Z,9.03
2019-05-22T23:27:29.609Z,11.80
2019-05-22T23:30:02.138Z,11.75
2019-05-22T23:32:33.774Z,17.60
2019-05-22T23:35:07.557Z,12.47
2019-05-22T23:37:40.042Z,12.70
2019-05-22T23:40:14.146Z,15.55
2019-05-22T23:42:46.056Z,15.70
2019-05-22T23:45:23.151Z,16.95
2019-05-22T23:47:57.764Z,17.35
2019-05-22T23:50:31.275Z,18.50
2019-05-22T23:53:02.728Z,14.53
2019-05-22T23:55:34.578Z,17.10
2019-05-22T23:58:07.449Z,19.52
